Sierra Vista, AZ (85636)

9:03 PM MST on September 14, 2014 (GMT -0700)
Hereford | Change Station
CLOSE
Current Station
Personal Weather Station
Location: Sierra Vista, AZ
Elevation: 4478 ft
Nearby Weather Stations

Elev 4478 ft 31.49 °N, 110.21 °W | Updated 51 seconds ago

Clear
Clear
71.9 °F
Feels Like 76 °F
N
0.0
Wind Variable Wind from SSW
Gusts 2.0 mph

Today
High -- | Low -- °F
--% Chance of Precip.
Yesterday
High -- | Low -- °F
Precip. -- in
6:04 AM 6:27 PM
Waning Gibbous, 59% visible
Pressure 29.92 in
Visibility 10.0 miles
Clouds Clear
Heat Index 76 °F
Dew Point 58 °F
Humidity 61%
Rainfall 0.00 in
Snow Depth 0 in , 0 in , 0 in
UV 0 out of 12
Pollen 8.10 out of 12
Air Quality Not available.
Flu Activity Not available.
METAR KFHU 150356Z AUTO 14006KT 10SM CLR 22/14 A3009 RMK AO2 SLP132 T02220139 $

More Conditions Fewer Conditions

Pressure 29.92 in
Visibility 10.0 miles
Clouds Clear
Heat Index 76 °F
Dew Point 58 °F
Humidity 61%
Rainfall 0.00 in
Snow Depth 0 in , 0 in , 0 in
UV 0 out of 12
Pollen 8.10 out of 12
Air Quality Not available.
Flu Activity Not available.
METAR KFHU 150356Z AUTO 14006KT 10SM CLR 22/14 A3009 RMK AO2 SLP132 T02220139 $

More Conditions Fewer Conditions

10-Day Weather Forecast

Almanac

Astronomy

Sep. 14, 2014 Rise Set
Actual Time 6:04 AM MST 6:27 PM MST
Civil Twilight 5:39 AM MST 6:52 PM MST
Nautical Twilight 5:11 AM MST 7:20 PM MST
Astronomical Twilight 4:42 AM MST 7:49 PM MST
Moon 10:44 PM MST (9/14) 11:52 AM MST (9/14)
Length of Visible Light 13h 12m
Length of Day
12h 23m
Tomorrow will be 1m 53s shorter.
Waning Gibbous, 59% of the Moon is Illuminated
Sep 15
Waning Gibbous
Sep 15
Last Quarter
Sep 24
New
Oct 1
First Quarter
Oct 8
Full

Today's Extremes

State Highs State Lows

Community

WunderPhotos

Upload Photos

1,753,398 photos uploaded!

Nearby

Snow Depth

Station Depth Elevation
Workman Creek 0 in 6900 ft
White Horse Lake 0 in 7180 ft
Snowslide Canyon 0 in 9730 ft
Maverick Fork 0 in 9200 ft
Beaver Head 0 in 7990 ft

Earthquake Activity

City Distance Mag. Time & Date
No recent earthquake activity has been reported nearby.
Minimum magnitude displayed is 2.5.

Coastal Water Temperatures

Place Temperature
No Stations Reporting

Nearby Weather Stations